createdAt,value
2022-10-14T00:02:08.259Z,95640.69
2022-10-14T00:04:35.966Z,95637.50
2022-10-14T00:07:03.576Z,95639.59
2022-10-14T00:09:31.162Z,95636.38
2022-10-14T00:11:58.799Z,95646.28
2022-10-14T00:14:27.796Z,95643.53
2022-10-14T00:16:55.694Z,95647.66
2022-10-14T00:19:23.542Z,95641.19
2022-10-14T00:21:51.254Z,95641.03
2022-10-14T00:24:19.023Z,95638.03
2022-10-14T00:26:47.356Z,95640.09
2022-10-14T00:29:18.656Z,95647.28
2022-10-14T00:31:47.934Z,95648.34
2022-10-14T00:34:16.096Z,95646.72
2022-10-14T00:36:44.521Z,95644.66
2022-10-14T00:39:12.379Z,95649.72
2022-10-14T00:41:40.867Z,95643.97
2022-10-14T00:44:29.401Z,95645.06
2022-10-14T00:46:58.366Z,95639.44
2022-10-14T00:49:28.520Z,95633.94
2022-10-14T00:51:59.437Z,95635.31
2022-10-14T00:54:36.872Z,95641.09
2022-10-14T00:57:05.718Z,95639.44
2022-10-14T00:59:34.315Z,95642.06
2022-10-14T01:02:03.345Z,95641.06
2022-10-14T01:04:31.284Z,95635.84
2022-10-14T01:07:07.536Z,95627.88
2022-10-14T01:09:41.961Z,95636.00
2022-10-14T01:12:28.529Z,95635.44
2022-10-14T01:15:05.066Z,95641.06
2022-10-14T01:17:43.770Z,95633.53
2022-10-14T01:20:42.455Z,95635.88
2022-10-14T01:23:47.187Z,95638.59
2022-10-14T01:26:31.287Z,95630.22
2022-10-14T01:29:16.232Z,95631.44
2022-10-14T01:31:49.208Z,95635.16
2022-10-14T01:34:24.299Z,95634.63
2022-10-14T01:36:57.204Z,95624.72
2022-10-14T01:39:28.631Z,95631.28
2022-10-14T01:42:02.146Z,95628.28
2022-10-14T01:44:32.184Z,95629.72
2022-10-14T01:47:03.628Z,95630.28
2022-10-14T01:49:35.703Z,95626.69
2022-10-14T01:52:08.321Z,95632.59
2022-10-14T01:54:40.383Z,95631.91
2022-10-14T01:57:12.558Z,95622.81
2022-10-14T01:59:42.510Z,95625.41
2022-10-14T02:02:13.587Z,95618.03
2022-10-14T02:04:41.189Z,95631.03
2022-10-14T02:07:14.515Z,95631.03
2022-10-14T02:09:52.706Z,95627.59
2022-10-14T02:12:29.668Z,95630.63
2022-10-14T02:15:04.513Z,95629.91
2022-10-14T02:17:39.563Z,95630.44
2022-10-14T02:20:15.107Z,95630.19
2022-10-14T02:22:46.498Z,95633.03
2022-10-14T02:25:19.638Z,95642.94
2022-10-14T02:27:49.172Z,95640.88
2022-10-14T02:30:20.571Z,95636.72
2022-10-14T02:32:52.248Z,95641.16
2022-10-14T02:35:21.319Z,95635.22
2022-10-14T02:37:50.625Z,95639.47
2022-10-14T02:40:24.642Z,95641.41
2022-10-14T02:42:52.253Z,95644.16
2022-10-14T02:45:20.879Z,95642.94
2022-10-14T02:47:49.793Z,95651.47
2022-10-14T02:50:19.078Z,95653.13
2022-10-14T02:52:46.686Z,95635.56
2022-10-14T02:55:14.408Z,95643.13
2022-10-14T02:57:42.008Z,95644.47
2022-10-14T03:00:10.885Z,95646.28
2022-10-14T03:02:38.483Z,95645.97
2022-10-14T03:05:08.242Z,95643.81
2022-10-14T03:07:35.905Z,95644.38
2022-10-14T03:10:03.829Z,95639.19
2022-10-14T03:12:31.461Z,95634.22
2022-10-14T03:14:59.077Z,95638.09
2022-10-14T03:17:26.835Z,95637.00
2022-10-14T03:19:54.476Z,95642.91
2022-10-14T03:22:23.804Z,95646.22
2022-10-14T03:24:51.618Z,95641.38
2022-10-14T03:27:19.305Z,95634.25
2022-10-14T03:29:47.054Z,95633.16
2022-10-14T03:32:14.908Z,95631.00
2022-10-14T03:34:42.627Z,95627.94
2022-10-14T03:37:10.314Z,95628.66
2022-10-14T03:39:39.295Z,95628.66
2022-10-14T03:42:06.984Z,95630.19
2022-10-14T03:44:34.626Z,95624.72
2022-10-14T03:47:02.222Z,95632.53
2022-10-14T03:49:29.809Z,95634.34
2022-10-14T03:51:57.438Z,95630.50
2022-10-14T03:54:25.112Z,95625.25
2022-10-14T03:56:54.073Z,95626.94
2022-10-14T03:59:21.680Z,95630.50
2022-10-14T04:01:49.419Z,95622.81
2022-10-14T04:04:17.056Z,95617.69
2022-10-14T04:06:44.654Z,95616.34
2022-10-14T04:09:12.275Z,95629.41
2022-10-14T04:11:39.818Z,95612.22
2022-10-14T04:14:08.771Z,95620.63
2022-10-14T04:16:36.349Z,95617.28
2022-10-14T04:19:04.153Z,95611.94
2022-10-14T04:21:31.762Z,95605.50
2022-10-14T04:23:59.309Z,95602.19
2022-10-14T04:26:26.963Z,95606.31
2022-10-14T04:28:54.643Z,95607.13
2022-10-14T04:31:23.622Z,95600.81
2022-10-14T04:33:51.437Z,95603.97
2022-10-14T04:36:19.002Z,95603.28
2022-10-14T04:38:46.616Z,95598.75
2022-10-14T04:41:14.326Z,95598.59
2022-10-14T04:43:41.909Z,95594.06
2022-10-14T04:46:09.576Z,95592.59
2022-10-14T04:48:38.611Z,95600.53
2022-10-14T04:51:06.668Z,95591.19
2022-10-14T04:53:34.225Z,95584.59
2022-10-14T04:56:01.770Z,95577.59
2022-10-14T04:58:29.388Z,95577.72
2022-10-14T05:00:57.183Z,95571.81
2022-10-14T05:03:24.766Z,95580.22
2022-10-14T05:05:53.758Z,95570.16
2022-10-14T05:08:21.334Z,95570.84
2022-10-14T05:10:49.590Z,95566.75
2022-10-14T05:13:17.435Z,95569.75
2022-10-14T05:15:45.398Z,95567.13
2022-10-14T05:18:13.357Z,95568.38
2022-10-14T05:20:41.001Z,95573.75
2022-10-14T05:23:09.982Z,95563.19
2022-10-14T05:25:37.595Z,95562.63
2022-10-14T05:28:05.301Z,95569.06
2022-10-14T05:30:34.871Z,95554.09
2022-10-14T05:33:02.518Z,95559.19
2022-10-14T05:35:53.991Z,95564.28
2022-10-14T05:38:19.143Z,95568.81
2022-10-14T05:40:53.076Z,95570.72
2022-10-14T05:43:20.651Z,95564.53
2022-10-14T05:45:48.232Z,95567.03
2022-10-14T05:48:15.902Z,95561.81
2022-10-14T05:50:43.923Z,95558.78
2022-10-14T05:53:11.730Z,95562.09
2022-10-14T05:55:41.465Z,95558.38
2022-10-14T05:58:09.128Z,95564.69
2022-10-14T06:00:36.737Z,95559.88
2022-10-14T06:03:04.439Z,95551.06
2022-10-14T06:05:32.130Z,95554.38
2022-10-14T06:07:59.792Z,95551.88
2022-10-14T06:10:27.744Z,95552.16
2022-10-14T06:12:57.749Z,95555.84
2022-10-14T06:15:25.337Z,95556.13
2022-10-14T06:17:53.041Z,95540.34
2022-10-14T06:20:21.008Z,95547.31
2022-10-14T06:22:48.680Z,95548.81
2022-10-14T06:25:16.388Z,95546.22
2022-10-14T06:27:44.232Z,95546.78
2022-10-14T06:30:14.482Z,95546.38
2022-10-14T06:32:42.131Z,95542.69
2022-10-14T06:35:10.427Z,95537.59
2022-10-14T06:37:38.256Z,95546.41
2022-10-14T06:40:06.939Z,95551.47
2022-10-14T06:42:35.008Z,95551.59
2022-10-14T06:45:02.732Z,95549.53
2022-10-14T06:47:33.167Z,95550.22
2022-10-14T06:50:00.787Z,95553.25
2022-10-14T06:52:28.390Z,95551.06
2022-10-14T06:54:56.344Z,95552.47
2022-10-14T06:57:24.909Z,95552.47
2022-10-14T06:59:52.499Z,95551.06
2022-10-14T07:02:20.422Z,95554.78
2022-10-14T07:04:49.736Z,95547.78
2022-10-14T07:07:17.313Z,95546.69
2022-10-14T07:09:44.921Z,95550.41
2022-10-14T07:12:14.140Z,95549.31
2022-10-14T07:14:41.990Z,95549.28
2022-10-14T07:17:09.712Z,95539.41
2022-10-14T07:19:37.299Z,95539.25
2022-10-14T07:22:06.327Z,95534.59
2022-10-14T07:24:33.933Z,95534.03
2022-10-14T07:29:34.732Z,95529.75
2022-10-14T07:32:02.322Z,95527.22
2022-10-14T07:34:29.988Z,95530.84
2022-10-14T07:36:57.699Z,95527.81
2022-10-14T07:39:27.562Z,95530.84
2022-10-14T07:41:55.812Z,95530.75
2022-10-14T07:44:26.484Z,95526.38
2022-10-14T07:46:55.279Z,95533.38
2022-10-14T07:49:23.859Z,95539.19
2022-10-14T07:51:51.563Z,95526.84
2022-10-14T07:54:21.802Z,95532.88
2022-10-14T07:56:50.886Z,95532.53
2022-10-14T07:59:19.277Z,95537.56
2022-10-14T08:01:47.575Z,95534.63
2022-10-14T08:04:15.559Z,95534.34
2022-10-14T08:06:43.409Z,95536.69
2022-10-14T08:09:13.521Z,95538.75
2022-10-14T08:11:41.869Z,95528.13
2022-10-14T08:14:10.971Z,95538.34
2022-10-14T08:16:39.727Z,95532.34
2022-10-14T08:19:13.723Z,95538.84
2022-10-14T08:21:42.691Z,95534.28
2022-10-14T08:24:11.042Z,95529.59
2022-10-14T08:26:40.020Z,95527.47
2022-10-14T08:29:12.388Z,95519.91
2022-10-14T08:31:40.090Z,95519.34
2022-10-14T08:34:07.664Z,95518.75
2022-10-14T08:36:35.467Z,95518.31
2022-10-14T08:39:03.520Z,95521.69
2022-10-14T08:41:48.095Z,95517.66
2022-10-14T08:44:23.002Z,95524.72
2022-10-14T08:46:53.777Z,95526.94
2022-10-14T08:49:29.437Z,95518.19
2022-10-14T08:52:01.974Z,95524.03
2022-10-14T08:54:37.354Z,95515.88
2022-10-14T08:57:06.380Z,95518.28
2022-10-14T08:59:41.370Z,95512.81
2022-10-14T09:02:21.831Z,95514.19
2022-10-14T09:04:50.098Z,95521.66
2022-10-14T09:07:20.571Z,95514.63
2022-10-14T09:09:52.486Z,95518.16
2022-10-14T09:12:25.266Z,95518.66
2022-10-14T09:15:03.596Z,95512.59
2022-10-14T09:17:37.880Z,95515.16
2022-10-14T09:20:16.454Z,95507.97
2022-10-14T09:22:44.564Z,95517.47
2022-10-14T09:25:15.527Z,95509.75
2022-10-14T09:27:43.650Z,95504.22
2022-10-14T09:30:17.696Z,95501.31
2022-10-14T09:32:49.076Z,95512.75
2022-10-14T09:35:23.837Z,95503.50
2022-10-14T09:37:52.107Z,95504.00
2022-10-14T09:40:27.596Z,95498.97
2022-10-14T09:43:00.560Z,95500.94
2022-10-14T09:45:31.801Z,95494.25
2022-10-14T09:48:07.151Z,95498.97
2022-10-14T09:50:38.958Z,95494.50
2022-10-14T09:53:15.348Z,95495.59
2022-10-14T09:55:49.505Z,95479.25
2022-10-14T09:58:19.668Z,95489.28
2022-10-14T10:00:48.719Z,95488.16
2022-10-14T10:06:08.094Z,95490.31
2022-10-14T10:08:38.248Z,95486.88
2022-10-14T10:11:09.063Z,95489.94
2022-10-14T10:13:45.228Z,95487.56
2022-10-14T10:16:23.993Z,95488.28
2022-10-14T10:18:54.142Z,95492.63
2022-10-14T10:21:26.385Z,95488.03
2022-10-14T10:23:57.553Z,95483.31
2022-10-14T10:26:29.513Z,95483.16
2022-10-14T10:28:59.025Z,95477.03
2022-10-14T10:31:52.523Z,95469.81
2022-10-14T10:34:56.727Z,95463.97
2022-10-14T10:37:31.412Z,95457.91
2022-10-14T10:40:23.143Z,95462.75
2022-10-14T10:43:02.759Z,95448.19
2022-10-14T10:45:43.123Z,95450.53
2022-10-14T10:48:18.375Z,95448.53
2022-10-14T10:50:57.559Z,95443.66
2022-10-14T10:53:37.715Z,95445.41
2022-10-14T10:56:13.489Z,95440.75
2022-10-14T10:58:44.129Z,95440.75
2022-10-14T11:01:26.237Z,95446.31
2022-10-14T11:04:11.555Z,95443.38
2022-10-14T11:07:03.369Z,95440.34
2022-10-14T11:09:57.630Z,95439.22
2022-10-14T11:12:34.151Z,95426.91
2022-10-14T11:15:41.702Z,95427.91
2022-10-14T11:18:12.969Z,95426.44
2022-10-14T11:20:51.693Z,95420.34
2022-10-14T11:23:39.289Z,95420.03
2022-10-14T11:26:15.849Z,95409.06
2022-10-14T11:28:51.226Z,95401.69
2022-10-14T11:31:29.742Z,95397.91
2022-10-14T11:34:13.217Z,95397.75
2022-10-14T11:36:50.839Z,95398.56
2022-10-14T11:39:36.050Z,95388.59
2022-10-14T11:42:27.014Z,95380.34
2022-10-14T11:45:08.771Z,95379.03
2022-10-14T11:47:41.654Z,95370.50
2022-10-14T11:50:18.427Z,95361.84
2022-10-14T11:52:55.650Z,95370.69
2022-10-14T11:55:24.800Z,95364.13
2022-10-14T11:57:55.265Z,95376.59
2022-10-14T12:01:01.321Z,95368.38
2022-10-14T12:03:44.082Z,95364.94
2022-10-14T12:06:16.611Z,95369.53
2022-10-14T12:08:50.258Z,95364.63
2022-10-14T12:11:28.631Z,95363.63
2022-10-14T12:14:03.959Z,95362.31
2022-10-14T12:16:32.391Z,95362.97
2022-10-14T12:19:00.099Z,95358.53
2022-10-14T12:21:33.229Z,95358.53
2022-10-14T12:24:07.966Z,95345.72
2022-10-14T12:26:52.197Z,95343.75
2022-10-14T12:29:23.684Z,95335.72
2022-10-14T12:32:07.382Z,95334.41
2022-10-14T12:34:38.425Z,95333.91
2022-10-14T12:37:45.274Z,95338.00
2022-10-14T12:40:31.374Z,95326.19
2022-10-14T12:43:20.344Z,95324.25
2022-10-14T12:46:02.669Z,95325.06
2022-10-14T12:48:33.847Z,95322.75
2022-10-14T12:51:11.514Z,95323.09
2022-10-14T12:53:41.650Z,95318.66
2022-10-14T12:56:11.308Z,95322.75
2022-10-14T12:58:43.714Z,95320.97
2022-10-14T13:01:18.766Z,95313.59
2022-10-14T13:03:53.964Z,95320.16
2022-10-14T13:06:35.495Z,95306.81
2022-10-14T13:09:36.373Z,95308.16
2022-10-14T13:12:45.469Z,95312.41
2022-10-14T13:15:59.617Z,95315.53
2022-10-14T13:18:50.339Z,95312.09
2022-10-14T13:21:32.119Z,95307.00
2022-10-14T13:24:19.936Z,95317.19
2022-10-14T13:27:13.118Z,95301.56
2022-10-14T13:30:07.699Z,95303.25
2022-10-14T13:32:42.231Z,95303.91
2022-10-14T13:35:22.759Z,95307.69
2022-10-14T13:37:57.903Z,95301.44
2022-10-14T13:40:30.123Z,95298.81
2022-10-14T13:42:59.642Z,95313.41
2022-10-14T13:45:35.937Z,95310.97
2022-10-14T13:48:06.166Z,95310.97
2022-10-14T13:50:38.539Z,95314.75
2022-10-14T13:53:14.954Z,95318.69
2022-10-14T13:55:50.354Z,95319.00
2022-10-14T13:58:22.564Z,95317.19
2022-10-14T14:01:02.058Z,95319.69
2022-10-14T14:03:33.351Z,95327.56
2022-10-14T14:06:09.958Z,95318.22
2022-10-14T14:08:47.488Z,95330.66
2022-10-14T14:11:20.384Z,95324.91
2022-10-14T14:13:59.961Z,95338.22
2022-10-14T14:16:32.706Z,95342.72
2022-10-14T14:19:08.367Z,95352.59
2022-10-14T14:21:38.426Z,95348.75
2022-10-14T14:24:16.784Z,95355.28
2022-10-14T14:26:45.165Z,95355.38
2022-10-14T14:29:18.641Z,95347.59
2022-10-14T14:32:06.239Z,95355.44
2022-10-14T14:34:36.678Z,95351.94
2022-10-14T14:39:59.281Z,95350.16
2022-10-14T14:42:28.222Z,95351.31
2022-10-14T14:44:59.847Z,95349.94
2022-10-14T14:47:29.209Z,95350.22
2022-10-14T14:50:24.970Z,95348.75
2022-10-14T14:52:49.242Z,95324.91
2022-10-14T14:55:41.645Z,95321.06
2022-10-14T14:58:22.924Z,95311.31
2022-10-14T15:00:51.594Z,95312.69
2022-10-14T15:03:19.249Z,95319.84
2022-10-14T15:05:51.693Z,95314.06
2022-10-14T15:08:23.762Z,95317.75
2022-10-14T15:10:52.505Z,95313.81
2022-10-14T15:13:30.732Z,95312.97
2022-10-14T15:15:58.729Z,95316.09
2022-10-14T15:18:28.707Z,95316.75
2022-10-14T15:21:14.378Z,95310.06
2022-10-14T15:23:46.896Z,95308.06
2022-10-14T15:26:23.986Z,95306.91
2022-10-14T15:32:06.070Z,95284.66
2022-10-14T15:34:35.589Z,95286.28
2022-10-14T15:37:03.235Z,95287.72
2022-10-14T15:39:32.146Z,95290.19
2022-10-14T15:41:59.828Z,95278.59
2022-10-14T15:44:27.431Z,95285.69
2022-10-14T15:47:12.500Z,95282.06
2022-10-14T15:49:43.213Z,95281.41
2022-10-14T15:52:15.279Z,95284.69
2022-10-14T15:54:48.094Z,95280.41
2022-10-14T15:57:16.791Z,95278.09
2022-10-14T15:59:47.727Z,95272.84
2022-10-14T16:02:19.495Z,95267.41
2022-10-14T16:05:07.317Z,95272.13
2022-10-14T16:07:35.173Z,95263.13
2022-10-14T16:10:05.199Z,95264.25
2022-10-14T16:12:32.911Z,95267.53
2022-10-14T16:15:02.009Z,95265.09
2022-10-14T16:17:29.751Z,95265.56
2022-10-14T16:19:57.357Z,95261.16
2022-10-14T16:22:24.972Z,95264.44
2022-10-14T16:24:54.342Z,95269.50
2022-10-14T16:27:24.596Z,95262.75
2022-10-14T16:29:52.410Z,95258.47
2022-10-14T16:32:19.999Z,95266.63
2022-10-14T16:34:47.607Z,95266.81
2022-10-14T16:37:15.234Z,95266.69
2022-10-14T16:39:42.819Z,95271.09
2022-10-14T16:42:10.442Z,95271.75
2022-10-14T16:44:39.429Z,95268.66
2022-10-14T16:47:19.999Z,95266.03
2022-10-14T16:49:51.906Z,95267.81
2022-10-14T16:52:20.163Z,95270.75
2022-10-14T16:54:50.935Z,95275.34
2022-10-14T16:57:18.854Z,95276.69
2022-10-14T16:59:47.828Z,95276.81
2022-10-14T17:02:17.002Z,95276.34
2022-10-14T17:04:46.490Z,95268.50
2022-10-14T17:07:16.567Z,95272.25
2022-10-14T17:09:44.201Z,95266.06
2022-10-14T17:12:13.990Z,95271.97
2022-10-14T17:14:42.927Z,95268.19
2022-10-14T17:17:12.446Z,95266.06
2022-10-14T17:19:40.198Z,95275.41
2022-10-14T17:22:07.843Z,95279.50
2022-10-14T17:24:35.452Z,95270.31
2022-10-14T17:27:04.645Z,95275.50
2022-10-14T17:29:32.655Z,95278.72
2022-10-14T17:32:00.321Z,95282.25
2022-10-14T17:34:29.328Z,95274.88
2022-10-14T17:36:57.019Z,95277.97
2022-10-14T17:39:29.206Z,95277.09
2022-10-14T17:41:57.535Z,95271.88
2022-10-14T17:44:25.718Z,95275.28
2022-10-14T17:46:53.829Z,95274.16
2022-10-14T17:49:22.060Z,95280.47
2022-10-14T17:51:51.015Z,95275.41
2022-10-14T17:54:18.634Z,95285.22
2022-10-14T17:56:46.214Z,95276.69
2022-10-14T17:59:14.316Z,95279.16
2022-10-14T18:04:29.956Z,95271.31
2022-10-14T18:06:59.189Z,95273.25
2022-10-14T18:09:26.814Z,95262.78
2022-10-14T18:12:10.480Z,95268.50
2022-10-14T18:14:38.646Z,95264.53
2022-10-14T18:17:06.450Z,95265.31
2022-10-14T18:19:35.031Z,95261.25
2022-10-14T18:22:04.091Z,95275.47
2022-10-14T18:24:35.367Z,95267.63
2022-10-14T18:27:19.982Z,95274.66
2022-10-14T18:29:57.248Z,95277.25
2022-10-14T18:33:26.431Z,95266.78
2022-10-14T18:48:29.872Z,95271.94
2022-10-14T18:51:41.170Z,95265.88
2022-10-14T18:58:23.298Z,95257.72
2022-10-14T19:01:16.238Z,95239.53
2022-10-14T19:03:47.543Z,95249.72
2022-10-14T19:06:28.093Z,95258.72
2022-10-14T19:09:32.210Z,95254.13
2022-10-14T19:12:46.423Z,95253.91
2022-10-14T19:15:16.185Z,95251.47
2022-10-14T19:17:45.999Z,95256.38
2022-10-14T19:20:14.758Z,95243.63
2022-10-14T19:22:44.813Z,95253.28
2022-10-14T19:25:12.640Z,95255.44
2022-10-14T19:27:40.275Z,95249.53
2022-10-14T19:30:09.165Z,95246.75
2022-10-14T19:32:38.113Z,95248.06
2022-10-14T19:35:06.513Z,95244.63
2022-10-14T19:37:34.231Z,95236.00
2022-10-14T19:40:01.872Z,95233.38
2022-10-14T19:42:29.509Z,95230.25
2022-10-14T19:44:57.111Z,95229.13
2022-10-14T19:47:25.082Z,95231.78
2022-10-14T19:49:54.252Z,95221.66
2022-10-14T19:52:21.893Z,95214.41
2022-10-14T19:54:49.479Z,95225.41
2022-10-14T19:57:17.036Z,95209.19
2022-10-14T19:59:44.682Z,95211.00
2022-10-14T20:02:12.302Z,95213.94
2022-10-14T20:04:39.940Z,95209.53
2022-10-14T20:07:10.432Z,95202.13
2022-10-14T20:09:38.106Z,95210.66
2022-10-14T20:12:06.101Z,95206.06
2022-10-14T20:14:33.720Z,95200.00
2022-10-14T20:17:01.956Z,95210.84
2022-10-14T20:19:29.534Z,95207.09
2022-10-14T20:22:16.370Z,95217.56
2022-10-14T20:24:46.906Z,95209.38
2022-10-14T20:27:15.186Z,95212.66
2022-10-14T20:29:42.874Z,95214.13
2022-10-14T20:32:10.961Z,95205.50
2022-10-14T20:34:38.633Z,95204.00
2022-10-14T20:37:06.316Z,95201.03
2022-10-14T20:39:33.930Z,95211.38
2022-10-14T20:42:02.888Z,95206.81
2022-10-14T20:44:30.618Z,95214.59
2022-10-14T20:46:58.264Z,95201.88
2022-10-14T20:49:25.883Z,95196.28
2022-10-14T20:51:53.476Z,95196.09
2022-10-14T20:54:21.237Z,95188.09
2022-10-14T20:56:50.202Z,95183.66
2022-10-14T20:59:19.130Z,95182.13
2022-10-14T21:01:46.958Z,95183.06
2022-10-14T21:04:14.716Z,95174.41
2022-10-14T21:06:42.266Z,95174.41
2022-10-14T21:09:10.682Z,95164.75
2022-10-14T21:11:39.338Z,95170.09
2022-10-14T21:14:06.907Z,95178.25
2022-10-14T21:16:37.323Z,95176.78
2022-10-14T21:19:07.261Z,95176.44
2022-10-14T21:21:36.919Z,95168.78
2022-10-14T21:24:05.059Z,95161.75
2022-10-14T21:26:32.901Z,95166.50
2022-10-14T21:29:01.720Z,95158.00
2022-10-14T21:31:29.392Z,95155.69
2022-10-14T21:34:04.396Z,95161.09
2022-10-14T21:36:34.031Z,95149.47
2022-10-14T21:39:01.904Z,95143.56
2022-10-14T21:41:29.553Z,95140.47
2022-10-14T21:43:59.289Z,95141.59
2022-10-14T21:46:27.751Z,95143.19
2022-10-14T21:48:57.570Z,95128.31
2022-10-14T21:51:27.521Z,95124.56
2022-10-14T21:53:55.795Z,95121.78
2022-10-14T21:56:24.480Z,95116.72
2022-10-14T21:58:52.681Z,95122.06
2022-10-14T22:01:22.031Z,95115.22
2022-10-14T22:03:54.758Z,95113.84
2022-10-14T22:06:22.522Z,95121.38
2022-10-14T22:08:53.446Z,95111.59
2022-10-14T22:11:24.294Z,95113.38
2022-10-14T22:13:52.857Z,95112.53
2022-10-14T22:16:20.514Z,95113.56
2022-10-14T22:18:50.463Z,95107.84
2022-10-14T22:21:20.187Z,95104.22
2022-10-14T22:23:49.049Z,95111.59
2022-10-14T22:26:20.582Z,95112.06
2022-10-14T22:28:48.732Z,95097.00
2022-10-14T22:31:18.106Z,95097.31
2022-10-14T22:33:46.010Z,95091.53
2022-10-14T22:36:19.377Z,95091.38
2022-10-14T22:38:50.947Z,95090.56
2022-10-14T22:41:21.802Z,95091.38
2022-10-14T22:43:50.454Z,95085.50
2022-10-14T22:46:20.610Z,95094.97
2022-10-14T22:48:48.960Z,95087.75
2022-10-14T22:51:19.124Z,95082.78
2022-10-14T22:53:47.998Z,95079.47
2022-10-14T22:56:22.634Z,95081.09
2022-10-14T22:58:53.826Z,95074.56
2022-10-14T23:01:22.516Z,95070.81
2022-10-14T23:03:50.216Z,95068.66
2022-10-14T23:06:18.183Z,95071.28
2022-10-14T23:08:46.011Z,95070.66
2022-10-14T23:11:15.160Z,95063.03
2022-10-14T23:13:44.635Z,95070.38
2022-10-14T23:16:14.346Z,95066.13
2022-10-14T23:21:17.133Z,95057.06
2022-10-14T23:23:45.609Z,95057.66
2022-10-14T23:26:14.338Z,95062.69
2022-10-14T23:28:42.257Z,95062.84
2022-10-14T23:31:14.417Z,95061.19
2022-10-14T23:33:42.932Z,95045.22
2022-10-14T23:36:12.580Z,95052.09
2022-10-14T23:38:41.332Z,95054.63
2022-10-14T23:41:10.451Z,95053.69
2022-10-14T23:43:38.525Z,95051.06
2022-10-14T23:46:07.219Z,95053.97
2022-10-14T23:48:36.822Z,95039.50
2022-10-14T23:51:04.818Z,95030.81
2022-10-14T23:53:32.581Z,95032.81
2022-10-14T23:56:00.309Z,95028.72
2022-10-14T23:58:29.712Z,95026.56
